createdAt,value
2018-07-20T00:00:24.067Z,17.4
2018-07-20T00:01:31.283Z,17.4
2018-07-20T00:02:38.489Z,17.3
2018-07-20T00:03:45.701Z,17.3
2018-07-20T00:04:52.916Z,17.3
2018-07-20T00:06:00.122Z,17.3
2018-07-20T00:07:07.331Z,17.2
2018-07-20T00:08:14.542Z,17.2
2018-07-20T00:09:21.954Z,17.2
2018-07-20T00:10:29.204Z,17.2
2018-07-20T00:11:36.431Z,17.2
2018-07-20T00:12:43.638Z,17.1
2018-07-20T00:13:50.846Z,17.1
2018-07-20T00:14:57.779Z,17.1
2018-07-20T00:16:04.995Z,17
2018-07-20T00:17:11.928Z,17
2018-07-20T00:18:19.138Z,17
2018-07-20T00:19:26.352Z,17
2018-07-20T00:20:33.562Z,17
2018-07-20T00:21:40.774Z,17
2018-07-20T00:22:47.985Z,16.9
2018-07-20T00:23:54.926Z,16.9
2018-07-20T00:25:01.866Z,16.9
2018-07-20T00:26:08.803Z,16.9
2018-07-20T00:27:15.735Z,16.9
2018-07-20T00:28:22.945Z,16.9
2018-07-20T00:29:30.156Z,16.9
2018-07-20T00:30:37.366Z,16.9
2018-07-20T00:31:44.576Z,16.9
2018-07-20T00:32:51.786Z,16.9
2018-07-20T00:33:58.997Z,16.9
2018-07-20T00:35:06.215Z,16.9
2018-07-20T00:36:13.428Z,16.8
2018-07-20T00:37:20.635Z,16.9
2018-07-20T00:38:27.853Z,16.9
2018-07-20T00:39:35.060Z,16.9
2018-07-20T00:40:42.000Z,16.8
2018-07-20T00:41:49.214Z,16.8
2018-07-20T00:42:56.431Z,16.8
2018-07-20T00:44:03.639Z,16.8
2018-07-20T00:45:10.848Z,16.8
2018-07-20T00:46:18.061Z,16.8
2018-07-20T00:47:25.275Z,16.9
2018-07-20T00:48:32.494Z,16.8
2018-07-20T00:49:39.710Z,16.8
2018-07-20T00:50:46.917Z,16.8
2018-07-20T00:51:54.129Z,16.8
2018-07-20T00:53:01.346Z,16.8
2018-07-20T00:54:08.553Z,16.8
2018-07-20T00:55:15.765Z,16.8
2018-07-20T00:56:22.981Z,16.8
2018-07-20T00:57:29.636Z,16.8
2018-07-20T00:58:36.848Z,16.7
2018-07-20T00:59:44.055Z,16.7
2018-07-20T01:00:51.267Z,16.7
2018-07-20T01:01:58.484Z,16.7
2018-07-20T01:03:05.690Z,16.7
2018-07-20T01:04:12.897Z,16.7
2018-07-20T01:05:20.103Z,16.7
2018-07-20T01:06:27.332Z,16.7
2018-07-20T01:07:34.271Z,16.6
2018-07-20T01:08:41.484Z,16.6
2018-07-20T01:09:48.693Z,16.6
2018-07-20T01:10:55.910Z,16.6
2018-07-20T01:12:03.141Z,16.6
2018-07-20T01:13:10.357Z,16.5
2018-07-20T01:14:17.568Z,16.6
2018-07-20T01:15:24.773Z,16.6
2018-07-20T01:16:31.987Z,16.6
2018-07-20T01:17:39.199Z,16.6
2018-07-20T01:18:46.133Z,16.5
2018-07-20T01:19:53.345Z,16.5
2018-07-20T01:21:00.558Z,16.5
2018-07-20T01:22:07.765Z,16.5
2018-07-20T01:23:14.977Z,16.5
2018-07-20T01:24:22.187Z,16.4
2018-07-20T01:25:29.435Z,16.4
2018-07-20T01:26:36.644Z,16.4
2018-07-20T01:27:43.848Z,16.4
2018-07-20T01:28:51.055Z,16.4
2018-07-20T01:29:57.997Z,16.4
2018-07-20T01:31:04.931Z,16.4
2018-07-20T01:32:12.140Z,16.4
2018-07-20T01:33:34.023Z,16.4
2018-07-20T01:34:41.234Z,16.5
2018-07-20T01:35:48.444Z,16.5
2018-07-20T01:36:55.652Z,16.5
2018-07-20T01:38:02.866Z,16.5
2018-07-20T01:39:09.794Z,16.4
2018-07-20T01:40:17.002Z,16.4
2018-07-20T01:41:24.212Z,16.4
2018-07-20T01:42:31.421Z,16.4
2018-07-20T01:43:38.624Z,16.4
2018-07-20T01:44:45.833Z,16.4
2018-07-20T01:45:53.047Z,16.3
2018-07-20T01:47:00.259Z,16.3
2018-07-20T01:48:07.468Z,16.3
2018-07-20T01:49:14.676Z,16.3
2018-07-20T01:50:21.883Z,16.3
2018-07-20T01:51:29.095Z,16.2
2018-07-20T01:52:36.306Z,16.2
2018-07-20T01:53:43.512Z,16.2
2018-07-20T01:54:50.721Z,16.1
2018-07-20T01:55:57.935Z,16.1
2018-07-20T01:57:05.153Z,16.1
2018-07-20T01:58:12.363Z,16.1
2018-07-20T01:59:19.572Z,16.1
2018-07-20T02:00:26.798Z,16.1
2018-07-20T02:01:34.007Z,16.1
2018-07-20T02:02:41.221Z,16.1
2018-07-20T02:03:48.429Z,16.1
2018-07-20T02:04:55.640Z,16.1
2018-07-20T02:06:02.851Z,16.1
2018-07-20T02:07:10.062Z,16.1
2018-07-20T02:08:17.283Z,16.1
2018-07-20T02:09:24.499Z,16.1
2018-07-20T02:10:31.712Z,16.1
2018-07-20T02:11:38.924Z,16
2018-07-20T02:12:46.135Z,16
2018-07-20T02:13:53.343Z,16
2018-07-20T02:15:00.552Z,16
2018-07-20T02:16:07.766Z,16
2018-07-20T02:17:14.981Z,16
2018-07-20T02:18:22.191Z,16
2018-07-20T02:19:29.400Z,16
2018-07-20T02:20:36.616Z,16
2018-07-20T02:21:43.820Z,15.9
2018-07-20T02:22:51.028Z,16
2018-07-20T02:23:57.940Z,16
2018-07-20T02:25:05.153Z,16
2018-07-20T02:26:12.358Z,15.9
2018-07-20T02:27:19.587Z,15.9
2018-07-20T02:28:26.786Z,15.9
2018-07-20T02:29:34.206Z,15.9
2018-07-20T02:30:41.768Z,15.9
2018-07-20T02:31:48.974Z,15.9
2018-07-20T02:32:56.184Z,15.9
2018-07-20T02:34:03.394Z,15.9
2018-07-20T02:35:10.601Z,15.9
2018-07-20T02:36:17.536Z,15.9
2018-07-20T02:37:24.747Z,15.9
2018-07-20T02:38:31.959Z,15.8
2018-07-20T02:39:39.172Z,15.8
2018-07-20T02:40:46.377Z,15.8
2018-07-20T02:41:53.310Z,15.8
2018-07-20T02:43:00.527Z,15.8
2018-07-20T02:44:07.736Z,15.8
2018-07-20T02:45:14.944Z,15.9
2018-07-20T02:46:22.152Z,15.9
2018-07-20T02:47:29.361Z,15.9
2018-07-20T02:48:36.572Z,15.8
2018-07-20T02:49:43.779Z,15.8
2018-07-20T02:50:50.986Z,15.8
2018-07-20T02:51:58.194Z,15.8
2018-07-20T02:53:05.404Z,15.8
2018-07-20T02:54:12.610Z,15.8
2018-07-20T02:55:19.819Z,15.8
2018-07-20T02:56:27.037Z,15.8
2018-07-20T02:57:34.248Z,15.8
2018-07-20T02:58:41.455Z,15.8
2018-07-20T02:59:48.671Z,15.8
2018-07-20T03:00:55.882Z,15.8
2018-07-20T03:02:02.815Z,15.8
2018-07-20T03:03:10.023Z,15.8
2018-07-20T03:04:17.238Z,15.8
2018-07-20T03:05:24.464Z,15.8
2018-07-20T03:06:31.669Z,15.8
2018-07-20T03:07:38.874Z,15.8
2018-07-20T03:08:46.086Z,15.8
2018-07-20T03:09:53.303Z,15.7
2018-07-20T03:11:00.509Z,15.7
2018-07-20T03:12:07.718Z,15.7
2018-07-20T03:13:14.930Z,15.7
2018-07-20T03:14:22.148Z,15.8
2018-07-20T03:15:29.348Z,15.8
2018-07-20T03:16:36.281Z,15.8
2018-07-20T03:17:43.490Z,15.8
2018-07-20T03:18:50.698Z,15.7
2018-07-20T03:19:57.630Z,15.7
2018-07-20T03:21:04.845Z,15.7
2018-07-20T03:22:12.300Z,15.7
2018-07-20T03:23:19.519Z,15.8
2018-07-20T03:24:26.724Z,15.7
2018-07-20T03:25:33.939Z,15.7
2018-07-20T03:26:41.140Z,15.8
2018-07-20T03:27:48.347Z,15.7
2018-07-20T03:28:55.560Z,15.7
2018-07-20T03:30:02.779Z,15.7
2018-07-20T03:31:09.981Z,15.6
2018-07-20T03:32:16.944Z,15.6
2018-07-20T03:33:24.156Z,15.6
2018-07-20T03:34:31.362Z,15.6
2018-07-20T03:35:38.568Z,15.6
2018-07-20T03:36:45.779Z,15.6
2018-07-20T03:37:52.985Z,15.5
2018-07-20T03:39:00.198Z,15.5
2018-07-20T03:40:07.403Z,15.5
2018-07-20T03:41:14.618Z,15.5
2018-07-20T03:42:21.845Z,15.5
2018-07-20T03:43:29.051Z,15.5
2018-07-20T03:44:36.267Z,15.4
2018-07-20T03:45:43.474Z,15.4
2018-07-20T03:46:50.414Z,15.5
2018-07-20T03:47:57.621Z,15.5
2018-07-20T03:49:04.749Z,15.4
2018-07-20T03:50:12.286Z,15.4
2018-07-20T03:51:19.497Z,15.4
2018-07-20T03:52:26.705Z,15.4
2018-07-20T03:53:33.911Z,15.4
2018-07-20T03:54:41.125Z,15.4
2018-07-20T03:55:48.339Z,15.4
2018-07-20T03:56:55.558Z,15.4
2018-07-20T03:58:02.495Z,15.4
2018-07-20T03:59:09.435Z,15.4
2018-07-20T04:00:16.655Z,15.5
2018-07-20T04:01:23.864Z,15.5
2018-07-20T04:02:31.266Z,15.5
2018-07-20T04:03:38.790Z,15.5
2018-07-20T04:04:46.003Z,15.6
2018-07-20T04:05:53.223Z,15.6
2018-07-20T04:07:00.426Z,15.7
2018-07-20T04:08:07.370Z,15.7
2018-07-20T04:09:14.305Z,15.7
2018-07-20T04:10:21.754Z,15.7
2018-07-20T04:11:29.258Z,15.7
2018-07-20T04:12:36.464Z,15.7
2018-07-20T04:13:43.673Z,15.8
2018-07-20T04:14:50.880Z,15.8
2018-07-20T04:15:58.088Z,15.8
2018-07-20T04:17:05.302Z,15.8
2018-07-20T04:18:12.231Z,15.8
2018-07-20T04:19:19.443Z,15.9
2018-07-20T04:20:26.654Z,15.9
2018-07-20T04:21:33.593Z,15.9
2018-07-20T04:22:40.523Z,15.9
2018-07-20T04:23:47.744Z,16
2018-07-20T04:24:54.944Z,16
2018-07-20T04:26:01.889Z,15.9
2018-07-20T04:27:08.826Z,15.9
2018-07-20T04:28:15.763Z,15.9
2018-07-20T04:29:22.979Z,15.9
2018-07-20T04:30:29.640Z,15.9
2018-07-20T04:31:36.850Z,15.9
2018-07-20T04:32:44.059Z,15.9
2018-07-20T04:33:51.263Z,15.9
2018-07-20T04:34:58.481Z,15.9
2018-07-20T04:36:05.684Z,15.9
2018-07-20T04:37:12.904Z,16
2018-07-20T04:38:20.142Z,16
2018-07-20T04:39:27.348Z,16
2018-07-20T04:40:34.283Z,16
2018-07-20T04:41:41.535Z,16
2018-07-20T04:42:48.750Z,16
2018-07-20T04:43:55.844Z,16
2018-07-20T04:45:03.285Z,16
2018-07-20T04:46:10.493Z,15.9
2018-07-20T04:47:17.705Z,16
2018-07-20T04:48:24.931Z,16
2018-07-20T04:49:32.139Z,16
2018-07-20T04:50:39.346Z,16
2018-07-20T04:51:46.557Z,16
2018-07-20T04:52:53.495Z,16.1
2018-07-20T04:54:00.709Z,16
2018-07-20T04:55:07.930Z,16
2018-07-20T04:56:15.133Z,16
2018-07-20T04:57:22.340Z,16
2018-07-20T04:58:29.545Z,16
2018-07-20T04:59:36.750Z,16
2018-07-20T05:00:43.959Z,16.1
2018-07-20T05:01:51.171Z,16.1
2018-07-20T05:02:58.377Z,16.1
2018-07-20T05:04:05.306Z,16.1
2018-07-20T05:05:12.532Z,16.1
2018-07-20T05:06:34.394Z,16.2
2018-07-20T05:07:41.053Z,16.2
2018-07-20T05:08:48.266Z,16.3
2018-07-20T05:09:55.485Z,16.3
2018-07-20T05:11:02.420Z,16.3
2018-07-20T05:12:09.650Z,16.3
2018-07-20T05:13:16.873Z,16.3
2018-07-20T05:14:24.074Z,16.4
2018-07-20T05:15:31.286Z,16.4
2018-07-20T05:16:38.497Z,16.4
2018-07-20T05:17:45.432Z,16.4
2018-07-20T05:18:52.651Z,16.4
2018-07-20T05:19:59.861Z,16.5
2018-07-20T05:21:07.073Z,16.6
2018-07-20T05:22:14.291Z,16.6
2018-07-20T05:23:21.502Z,16.6
2018-07-20T05:24:28.711Z,16.7
2018-07-20T05:25:35.923Z,16.7
2018-07-20T05:26:43.138Z,16.9
2018-07-20T05:27:50.350Z,16.8
2018-07-20T05:28:57.284Z,16.8
2018-07-20T05:30:04.501Z,16.9
2018-07-20T05:31:11.750Z,17
2018-07-20T05:32:18.972Z,17
2018-07-20T05:33:26.182Z,17.1
2018-07-20T05:34:33.394Z,17.1
2018-07-20T05:35:40.603Z,17.2
2018-07-20T05:36:47.813Z,17.3
2018-07-20T05:37:55.024Z,17.4
2018-07-20T05:39:01.963Z,17.4
2018-07-20T05:40:09.173Z,17.5
2018-07-20T05:41:16.382Z,17.6
2018-07-20T05:42:23.584Z,17.7
2018-07-20T05:43:30.244Z,17.9
2018-07-20T05:44:37.451Z,18.1
2018-07-20T05:45:44.712Z,18.2
2018-07-20T05:46:51.922Z,18.4
2018-07-20T05:47:59.132Z,18.5
2018-07-20T05:49:05.785Z,18.7
2018-07-20T05:50:12.998Z,18.9
2018-07-20T05:51:20.204Z,19
2018-07-20T05:52:27.413Z,19.2
2018-07-20T05:53:34.626Z,19.3
2018-07-20T05:54:41.578Z,19.5
2018-07-20T05:55:48.531Z,19.8
2018-07-20T05:56:55.739Z,19.9
2018-07-20T05:58:02.953Z,20.1
2018-07-20T05:59:10.202Z,20.2
2018-07-20T06:00:17.414Z,20.3
2018-07-20T06:01:24.624Z,20.4
2018-07-20T06:02:31.839Z,20.5
2018-07-20T06:03:38.772Z,20.6
2018-07-20T06:04:45.434Z,20.8
2018-07-20T06:05:52.649Z,21
2018-07-20T06:06:59.862Z,21.2
2018-07-20T06:08:06.799Z,21.3
2018-07-20T06:09:14.014Z,21.4
2018-07-20T06:10:21.222Z,21.6
2018-07-20T06:11:28.432Z,21.8
2018-07-20T06:12:35.642Z,22
2018-07-20T06:13:42.851Z,22.1
2018-07-20T06:14:50.066Z,22.2
2018-07-20T06:15:57.282Z,22.5
2018-07-20T06:17:04.222Z,22.6
2018-07-20T06:18:11.436Z,22.6
2018-07-20T06:19:18.651Z,22.7
2018-07-20T06:20:25.859Z,22.8
2018-07-20T06:21:33.068Z,23
2018-07-20T06:22:40.291Z,23
2018-07-20T06:23:47.607Z,23.2
2018-07-20T06:24:54.912Z,23.3
2018-07-20T06:26:02.124Z,23.5
2018-07-20T06:27:09.335Z,23.7
2018-07-20T06:28:16.277Z,23.9
2018-07-20T06:29:23.483Z,23.7
2018-07-20T06:30:30.700Z,23.6
2018-07-20T06:31:37.912Z,23.7
2018-07-20T06:32:44.852Z,23.8
2018-07-20T06:33:52.065Z,23.9
2018-07-20T06:34:59.273Z,23.9
2018-07-20T06:36:06.488Z,24.1
2018-07-20T06:37:13.706Z,24.2
2018-07-20T06:38:20.920Z,24.4
2018-07-20T06:39:28.133Z,24.6
2018-07-20T06:40:35.439Z,24.6
2018-07-20T06:41:42.719Z,24.7
2018-07-20T06:42:49.926Z,24.9
2018-07-20T06:43:57.140Z,25.2
2018-07-20T06:45:04.352Z,25.4
2018-07-20T06:46:11.565Z,25.6
2018-07-20T06:47:18.773Z,25.7
2018-07-20T06:48:25.979Z,25.7
2018-07-20T06:49:33.196Z,25.6
2018-07-20T06:50:40.409Z,25.4
2018-07-20T06:51:47.622Z,25.5
2018-07-20T06:52:54.570Z,25.7
2018-07-20T06:54:01.784Z,25.6
2018-07-20T06:55:08.991Z,25.6
2018-07-20T06:56:16.205Z,25.8
2018-07-20T06:57:23.429Z,26
2018-07-20T06:58:30.843Z,26.2
2018-07-20T06:59:38.058Z,26.2
2018-07-20T07:00:45.272Z,25.8
2018-07-20T07:01:52.492Z,25.7
2018-07-20T07:02:59.706Z,25.7
2018-07-20T07:04:06.913Z,25.9
2018-07-20T07:05:14.125Z,26
2018-07-20T07:06:21.340Z,26.1
2018-07-20T07:07:28.551Z,26.1
2018-07-20T07:08:35.769Z,26.2
2018-07-20T07:09:42.708Z,26.4
2018-07-20T07:10:49.919Z,26.3
2018-07-20T07:11:57.137Z,26.2
2018-07-20T07:13:04.352Z,26
2018-07-20T07:14:11.574Z,25.8
2018-07-20T07:15:19.000Z,25.8
2018-07-20T07:16:26.585Z,26.1
2018-07-20T07:17:33.799Z,26.1
2018-07-20T07:18:40.738Z,26.1
2018-07-20T07:19:47.955Z,25.7
2018-07-20T07:20:54.902Z,25.5
2018-07-20T07:22:02.117Z,25.2
2018-07-20T07:23:09.335Z,25
2018-07-20T07:24:16.284Z,24.9
2018-07-20T07:25:23.220Z,24.8
2018-07-20T07:26:30.157Z,24.8
2018-07-20T07:27:37.370Z,24.9
2018-07-20T07:28:44.580Z,25
2018-07-20T07:29:51.797Z,25.5
2018-07-20T07:30:59.011Z,25.8
2018-07-20T07:32:06.227Z,26.1
2018-07-20T07:33:13.439Z,26.5
2018-07-20T07:34:20.658Z,27
2018-07-20T07:35:27.871Z,27.2
2018-07-20T07:36:35.086Z,27.6
2018-07-20T07:37:42.302Z,27.9
2018-07-20T07:38:49.516Z,28.3
2018-07-20T07:39:56.732Z,28
2018-07-20T07:41:03.949Z,27.8
2018-07-20T07:42:11.290Z,27.5
2018-07-20T07:43:18.706Z,27.7
2018-07-20T07:44:25.928Z,28
2018-07-20T07:45:33.146Z,28.3
2018-07-20T07:46:40.364Z,28.6
2018-07-20T07:47:47.584Z,28.4
2018-07-20T07:48:54.800Z,28.6
2018-07-20T07:50:02.014Z,28.5
2018-07-20T07:51:09.227Z,28.8
2018-07-20T07:52:16.482Z,28.8
2018-07-20T07:53:23.702Z,28.7
2018-07-20T07:54:30.914Z,28.6
2018-07-20T07:55:38.140Z,28.7
2018-07-20T07:56:45.095Z,28.8
2018-07-20T07:57:52.308Z,29.2
2018-07-20T07:58:59.526Z,29.2
2018-07-20T08:00:06.469Z,29
2018-07-20T08:01:13.691Z,29
2018-07-20T08:02:20.901Z,29.3
2018-07-20T08:03:28.186Z,29.9
2018-07-20T08:04:35.580Z,30.3
2018-07-20T08:05:42.800Z,30.6
2018-07-20T08:06:50.042Z,30.7
2018-07-20T08:07:57.256Z,30.6
2018-07-20T08:09:04.472Z,30.7
2018-07-20T08:10:11.783Z,30.1
2018-07-20T08:11:19.034Z,29.3
2018-07-20T08:12:26.253Z,29
2018-07-20T08:13:33.472Z,28.7
2018-07-20T08:14:40.678Z,28.4
2018-07-20T08:15:48.007Z,28.3
2018-07-20T08:16:55.304Z,28.5
2018-07-20T08:18:02.518Z,28.9
2018-07-20T08:19:09.458Z,29.6
2018-07-20T08:20:16.673Z,30.3
2018-07-20T08:21:23.896Z,30.1
2018-07-20T08:22:31.114Z,29.7
2018-07-20T08:23:38.329Z,29.7
2018-07-20T08:24:45.543Z,29.4
2018-07-20T08:25:52.763Z,29
2018-07-20T08:26:59.973Z,29.1
2018-07-20T08:28:07.190Z,29.1
2018-07-20T08:29:14.411Z,29.5
2018-07-20T08:30:21.623Z,29.7
2018-07-20T08:31:28.840Z,29.8
2018-07-20T08:32:36.062Z,29.6
2018-07-20T08:33:43.286Z,29.5
2018-07-20T08:34:50.505Z,29.6
2018-07-20T08:35:57.729Z,30
2018-07-20T08:37:04.968Z,30.2
2018-07-20T08:38:12.190Z,29.9
2018-07-20T08:39:19.399Z,29.4
2018-07-20T08:40:26.618Z,29.4
2018-07-20T08:41:33.836Z,29.6
2018-07-20T08:42:41.050Z,29.8
2018-07-20T08:43:48.270Z,30.1
2018-07-20T08:44:55.496Z,30.3
2018-07-20T08:46:02.718Z,30.6
2018-07-20T08:47:09.930Z,30.6
2018-07-20T08:48:16.869Z,30.6
2018-07-20T08:49:24.085Z,30.3
2018-07-20T08:50:31.307Z,30.3
2018-07-20T08:51:38.521Z,30.4
2018-07-20T08:52:45.459Z,30.3
2018-07-20T08:53:52.404Z,30.4
2018-07-20T08:54:59.679Z,30.6
2018-07-20T08:56:06.900Z,30.8
2018-07-20T08:57:14.118Z,30.5
2018-07-20T08:58:21.331Z,30.2
2018-07-20T08:59:28.546Z,30.2
2018-07-20T09:00:35.762Z,30.1
2018-07-20T09:01:42.977Z,30
2018-07-20T09:02:50.194Z,30
2018-07-20T09:03:57.415Z,30.1
2018-07-20T09:05:04.369Z,30
2018-07-20T09:06:11.582Z,30
2018-07-20T09:07:18.799Z,29.9
2018-07-20T09:08:25.744Z,30.1
2018-07-20T09:09:32.964Z,30.3
2018-07-20T09:10:40.404Z,30.2
2018-07-20T09:11:47.618Z,29.7
2018-07-20T09:12:54.836Z,29.5
2018-07-20T09:14:01.795Z,29.9
2018-07-20T09:15:08.730Z,29.9
2018-07-20T09:16:15.951Z,29.6
2018-07-20T09:17:23.175Z,29.8
2018-07-20T09:18:30.393Z,30.1
2018-07-20T09:19:37.611Z,30.4
2018-07-20T09:20:45.091Z,30.8
2018-07-20T09:21:52.652Z,30.9
2018-07-20T09:22:59.874Z,31
2018-07-20T09:24:07.096Z,31
2018-07-20T09:25:14.306Z,30.9
2018-07-20T09:26:21.525Z,30.8
2018-07-20T09:27:28.744Z,31
2018-07-20T09:28:35.958Z,30.9
2018-07-20T09:29:43.181Z,31.1
2018-07-20T09:30:50.395Z,31.3
2018-07-20T09:31:57.341Z,31.3
2018-07-20T09:33:04.556Z,31.5
2018-07-20T09:34:11.849Z,31.5
2018-07-20T09:35:19.356Z,31.6
2018-07-20T09:36:26.576Z,31.6
2018-07-20T09:37:33.789Z,31.6
2018-07-20T09:38:40.737Z,31.6
2018-07-20T09:39:47.952Z,31.6
2018-07-20T09:40:55.169Z,31.3
2018-07-20T09:42:02.443Z,31.1
2018-07-20T09:43:09.658Z,30.9
2018-07-20T09:44:16.963Z,30.7
2018-07-20T09:45:23.923Z,30.6
2018-07-20T09:46:31.157Z,30.7
2018-07-20T09:47:38.597Z,30.8
2018-07-20T09:49:00.818Z,31
2018-07-20T09:50:08.326Z,31.3
2018-07-20T09:51:15.543Z,31.5
2018-07-20T09:52:22.768Z,31.4
2018-07-20T09:53:29.990Z,31.2
2018-07-20T09:54:36.933Z,31.3
2018-07-20T09:55:43.877Z,31.5
2018-07-20T09:56:51.100Z,31.8
2018-07-20T09:57:58.048Z,32
2018-07-20T09:59:05.262Z,31.8
2018-07-20T10:00:12.682Z,31.8
2018-07-20T10:01:19.838Z,32
2018-07-20T10:02:26.834Z,32.2
2018-07-20T10:03:34.053Z,32.4
2018-07-20T10:04:41.473Z,32.5
2018-07-20T10:05:49.122Z,32.7
2018-07-20T10:06:56.427Z,32.9
2018-07-20T10:08:03.645Z,33.1
2018-07-20T10:09:10.867Z,33
2018-07-20T10:10:18.087Z,32.9
2018-07-20T10:11:25.305Z,33
2018-07-20T10:12:32.570Z,33
2018-07-20T10:13:39.883Z,32.8
2018-07-20T10:14:47.098Z,32.7
2018-07-20T10:15:54.323Z,32.6
2018-07-20T10:17:01.534Z,32.4
2018-07-20T10:18:08.751Z,32.4
2018-07-20T10:19:15.976Z,32.4
2018-07-20T10:20:23.188Z,32
2018-07-20T10:21:30.406Z,31.9
2018-07-20T10:22:37.626Z,32
2018-07-20T10:23:44.846Z,31.8
2018-07-20T10:24:52.062Z,31.2
2018-07-20T10:25:59.282Z,30.7
2018-07-20T10:27:06.503Z,30.8
2018-07-20T10:28:13.448Z,31.2
2018-07-20T10:29:20.660Z,31.3
2018-07-20T10:30:27.889Z,31.2
2018-07-20T10:31:35.493Z,31.3
2018-07-20T10:32:43.036Z,31.3
2018-07-20T10:33:50.257Z,31.4
2018-07-20T10:34:57.471Z,31.5
2018-07-20T10:36:04.692Z,31.8
2018-07-20T10:37:11.908Z,31.6
2018-07-20T10:38:33.784Z,31.8
2018-07-20T10:39:41.022Z,32.2
2018-07-20T10:40:48.240Z,32.2
2018-07-20T10:41:55.457Z,31.6
2018-07-20T10:43:02.944Z,31.8
2018-07-20T10:44:10.182Z,32.3
2018-07-20T10:45:17.397Z,32.5
2018-07-20T10:46:24.614Z,32.8
2018-07-20T10:47:31.834Z,32.2
2018-07-20T10:48:39.053Z,31.9
2018-07-20T10:49:46.281Z,31.8
2018-07-20T10:50:53.227Z,31.6
2018-07-20T10:52:00.477Z,31.8
2018-07-20T10:53:07.744Z,32.1
2018-07-20T10:54:14.890Z,32.3
2018-07-20T10:55:21.566Z,32.4
2018-07-20T10:56:28.784Z,32.3
2018-07-20T10:57:35.994Z,32.5
2018-07-20T10:58:43.212Z,33
2018-07-20T10:59:50.429Z,33.2
2018-07-20T11:00:57.647Z,33.1
2018-07-20T11:02:04.869Z,32.8
2018-07-20T11:03:12.087Z,32.5
2018-07-20T11:04:19.304Z,32.4
2018-07-20T11:05:26.523Z,32.4
2018-07-20T11:06:33.743Z,32.4
2018-07-20T11:07:40.959Z,32.4
2018-07-20T11:08:48.184Z,32.5
2018-07-20T11:09:55.134Z,33
2018-07-20T11:11:02.083Z,33.5
2018-07-20T11:12:09.302Z,33.9
2018-07-20T11:13:16.521Z,34.1
2018-07-20T11:14:23.463Z,34
2018-07-20T11:15:30.681Z,34.2
2018-07-20T11:16:37.923Z,34.4
2018-07-20T11:17:45.136Z,34.6
2018-07-20T11:18:52.371Z,34.6
2018-07-20T11:19:59.593Z,34.4
2018-07-20T11:21:07.446Z,34.3
2018-07-20T11:22:14.851Z,34.2
2018-07-20T11:23:22.070Z,34.3
2018-07-20T11:24:29.290Z,34.6
2018-07-20T11:25:36.504Z,34.4
2018-07-20T11:26:43.725Z,34.4
2018-07-20T11:27:50.944Z,34.6
2018-07-20T11:28:58.162Z,34.9
2018-07-20T11:30:05.838Z,35
2018-07-20T11:31:13.865Z,35.2
2018-07-20T11:32:21.086Z,34.9
2018-07-20T11:33:28.308Z,34.9
2018-07-20T11:34:35.282Z,34.8
2018-07-20T11:35:42.526Z,34.6
2018-07-20T11:36:49.749Z,34.6
2018-07-20T11:37:56.974Z,33.9
2018-07-20T11:39:03.913Z,33.7
2018-07-20T11:40:11.133Z,33.9
2018-07-20T11:41:18.352Z,34
2018-07-20T11:42:25.572Z,33.9
2018-07-20T11:43:32.829Z,34.3
2018-07-20T11:44:40.041Z,34.5
2018-07-20T11:45:47.256Z,34.6
2018-07-20T11:46:54.486Z,34.7
2018-07-20T11:48:01.709Z,34.7
2018-07-20T11:49:08.922Z,34.8
2018-07-20T11:50:16.143Z,34.1
2018-07-20T11:51:23.359Z,33.9
2018-07-20T11:52:30.584Z,34.5
2018-07-20T11:53:37.524Z,35.1
2018-07-20T11:54:44.749Z,35.4
2018-07-20T11:55:51.717Z,35.9
2018-07-20T11:56:58.964Z,35.9
2018-07-20T11:58:06.210Z,35.5
2018-07-20T11:59:13.824Z,35
2018-07-20T12:00:20.762Z,35.2
2018-07-20T12:01:28.089Z,35.5
2018-07-20T12:02:35.670Z,35.9
2018-07-20T12:03:42.888Z,36
2018-07-20T12:04:49.848Z,36
2018-07-20T12:05:57.068Z,35.9
2018-07-20T12:07:04.289Z,36.1
2018-07-20T12:08:11.508Z,36.2
2018-07-20T12:09:18.762Z,36.2
2018-07-20T12:10:25.712Z,35.9
2018-07-20T12:11:34.365Z,35.7
2018-07-20T12:12:42.494Z,35.8
2018-07-20T12:13:49.719Z,36.1
2018-07-20T12:14:56.941Z,36.2
2018-07-20T12:16:04.157Z,36.3
2018-07-20T12:17:11.377Z,36.3
2018-07-20T12:18:18.638Z,36
2018-07-20T12:19:25.866Z,36
2018-07-20T12:20:32.816Z,35.2
2018-07-20T12:21:39.774Z,34.2
2018-07-20T12:22:46.995Z,34.2
2018-07-20T12:23:54.213Z,34.4
2018-07-20T12:25:01.432Z,34.5
2018-07-20T12:26:08.391Z,34.8
2018-07-20T12:27:15.608Z,35.2
2018-07-20T12:28:22.857Z,35.5
2018-07-20T12:29:30.087Z,35.9
2018-07-20T12:30:37.310Z,36.3
2018-07-20T12:31:44.541Z,36.2
2018-07-20T12:32:51.768Z,36.4
2018-07-20T12:33:58.775Z,36.5
2018-07-20T12:35:06.061Z,36.5
2018-07-20T12:36:13.288Z,36.4
2018-07-20T12:37:20.509Z,36.7
2018-07-20T12:38:27.729Z,37
2018-07-20T12:39:34.952Z,37.2
2018-07-20T12:40:41.899Z,37.4
2018-07-20T12:41:49.126Z,37.3
2018-07-20T12:42:56.084Z,36.5
2018-07-20T12:44:03.302Z,35.4
2018-07-20T12:45:10.521Z,35.2
2018-07-20T12:46:17.748Z,35.5
2018-07-20T12:47:24.975Z,35.9
2018-07-20T12:48:32.202Z,36.2
2018-07-20T12:49:39.422Z,36.3
2018-07-20T12:50:46.652Z,36.3
2018-07-20T12:51:53.871Z,36.6
2018-07-20T12:53:01.099Z,36.3
2018-07-20T12:54:08.316Z,36
2018-07-20T12:55:15.779Z,36.2
2018-07-20T12:56:23.717Z,36.5
2018-07-20T12:57:30.940Z,36.7
2018-07-20T12:58:38.099Z,36.8
2018-07-20T12:59:45.621Z,37
2018-07-20T13:00:52.848Z,36.9
2018-07-20T13:02:00.067Z,36.9
2018-07-20T13:03:07.287Z,36.6
2018-07-20T13:04:14.578Z,36.5
2018-07-20T13:05:21.998Z,36.6
2018-07-20T13:06:29.219Z,36.5
2018-07-20T13:07:36.456Z,36
2018-07-20T13:08:43.688Z,35.8
2018-07-20T13:09:50.369Z,35.9
2018-07-20T13:10:57.588Z,35.8
2018-07-20T13:12:05.067Z,36.2
2018-07-20T13:13:12.574Z,36.5
2018-07-20T13:14:20.029Z,36.5
2018-07-20T13:15:27.250Z,36.4
2018-07-20T13:16:34.468Z,35.6
2018-07-20T13:17:41.422Z,35.5
2018-07-20T13:18:48.644Z,35.6
2018-07-20T13:19:55.871Z,35.8
2018-07-20T13:21:03.092Z,35.9
2018-07-20T13:22:10.047Z,36.3
2018-07-20T13:23:17.272Z,36.3
2018-07-20T13:24:24.500Z,36.6
2018-07-20T13:25:31.733Z,36.8
2018-07-20T13:26:38.954Z,37
2018-07-20T13:27:46.179Z,36.9
2018-07-20T13:28:53.408Z,36.5
2018-07-20T13:30:00.631Z,36.6
2018-07-20T13:31:07.583Z,37
2018-07-20T13:32:14.804Z,37.3
2018-07-20T13:33:22.028Z,37.5
2018-07-20T13:34:29.246Z,37.8
2018-07-20T13:35:36.480Z,37.9
2018-07-20T13:36:43.696Z,37.7
2018-07-20T13:37:50.925Z,37.2
2018-07-20T13:38:58.145Z,36.8
2018-07-20T13:40:05.374Z,36.9
2018-07-20T13:41:12.594Z,36.9
2018-07-20T13:42:19.843Z,37.1
2018-07-20T13:43:27.051Z,37.2
2018-07-20T13:44:34.053Z,37.4
2018-07-20T13:45:41.275Z,37
2018-07-20T13:46:48.505Z,36.3
2018-07-20T13:47:55.453Z,36.4
2018-07-20T13:49:02.678Z,36.3
2018-07-20T13:50:09.910Z,36.4
2018-07-20T13:51:16.858Z,36.5
2018-07-20T13:52:24.087Z,36.2
2018-07-20T13:53:31.303Z,36.3
2018-07-20T13:54:38.525Z,36.3
2018-07-20T13:55:45.482Z,36.3
2018-07-20T13:56:52.691Z,36.3
2018-07-20T13:57:59.918Z,36.6
2018-07-20T13:59:06.861Z,37
2018-07-20T14:00:14.086Z,37.4
2018-07-20T14:01:21.306Z,37.5
2018-07-20T14:02:28.256Z,37.2
2018-07-20T14:03:35.484Z,36.9
2018-07-20T14:04:42.702Z,36.6
2018-07-20T14:05:49.924Z,36.1
2018-07-20T14:06:57.136Z,35.5
2018-07-20T14:08:04.364Z,34.8
2018-07-20T14:09:11.590Z,34.9
2018-07-20T14:10:18.851Z,35.4
2018-07-20T14:11:26.206Z,35.8
2018-07-20T14:12:33.535Z,36.1
2018-07-20T14:13:40.766Z,36.1
2018-07-20T14:14:47.705Z,36.3
2018-07-20T14:15:54.922Z,36.7
2018-07-20T14:17:02.150Z,35.7
2018-07-20T14:18:09.519Z,35.4
2018-07-20T14:19:16.862Z,35.3
2018-07-20T14:20:24.086Z,35.4
2018-07-20T14:21:31.308Z,35.6
2018-07-20T14:22:38.256Z,36
2018-07-20T14:23:45.604Z,35.8
2018-07-20T14:24:53.043Z,35.8
2018-07-20T14:26:00.273Z,35.3
2018-07-20T14:27:07.493Z,35.7
2018-07-20T14:28:14.446Z,36
2018-07-20T14:29:21.680Z,36.4
2018-07-20T14:30:28.894Z,36.6
2018-07-20T14:31:36.360Z,36.9
2018-07-20T14:32:43.871Z,37.1
2018-07-20T14:33:51.098Z,37.2
2018-07-20T14:34:58.047Z,37.1
2018-07-20T14:36:05.269Z,37
2018-07-20T14:37:12.494Z,36.8
2018-07-20T14:38:19.722Z,36.5
2018-07-20T14:39:26.949Z,36.6
2018-07-20T14:40:34.175Z,36.4
2018-07-20T14:41:41.397Z,36.4
2018-07-20T14:42:48.342Z,36.6
2018-07-20T14:43:55.566Z,36.7
2018-07-20T14:45:02.796Z,36.2
2018-07-20T14:46:09.740Z,35.5
2018-07-20T14:47:16.964Z,35
2018-07-20T14:48:24.189Z,35.2
2018-07-20T14:49:31.415Z,35.5
2018-07-20T14:50:38.633Z,35.5
2018-07-20T14:51:45.855Z,35.4
2018-07-20T14:52:53.078Z,36
2018-07-20T14:54:00.323Z,36.2
2018-07-20T14:55:07.555Z,36.3
2018-07-20T14:56:14.769Z,35.9
2018-07-20T14:57:22.003Z,35.7
2018-07-20T14:58:29.220Z,35.8
2018-07-20T14:59:36.436Z,35.7
2018-07-20T15:00:43.661Z,35.3
2018-07-20T15:01:50.882Z,35.7